createdAt,value
2022-11-14T00:00:31.540Z,51.00
2022-11-14T00:03:04.317Z,50.80
2022-11-14T00:05:31.212Z,50.30
2022-11-14T00:07:58.042Z,50.20
2022-11-14T00:10:25.006Z,50.00
2022-11-14T00:12:51.786Z,49.50
2022-11-14T00:15:18.541Z,51.00
2022-11-14T00:17:45.184Z,48.70
2022-11-14T00:20:12.801Z,48.90
2022-11-14T00:22:39.484Z,50.70
2022-11-14T00:25:06.483Z,50.40
2022-11-14T00:27:33.133Z,50.70
2022-11-14T00:29:59.858Z,52.80
2022-11-14T00:32:26.557Z,53.90
2022-11-14T00:34:53.476Z,55.40
2022-11-14T00:37:20.171Z,56.50
2022-11-14T00:39:46.866Z,58.00
2022-11-14T00:42:13.613Z,57.90
2022-11-14T00:44:40.605Z,59.20
2022-11-14T00:47:07.306Z,60.70
2022-11-14T00:49:34.060Z,61.10
2022-11-14T00:52:00.847Z,60.60
2022-11-14T00:54:27.674Z,60.90
2022-11-14T00:56:54.488Z,60.50
2022-11-14T00:59:21.250Z,62.80
2022-11-14T01:01:48.027Z,63.30
2022-11-14T01:04:14.739Z,63.30
2022-11-14T01:06:41.426Z,63.70
2022-11-14T01:09:08.405Z,65.20
2022-11-14T01:11:35.279Z,65.80
2022-11-14T01:14:02.026Z,66.20
2022-11-14T01:16:28.694Z,67.70
2022-11-14T01:18:55.412Z,69.30
2022-11-14T01:21:22.080Z,71.00
2022-11-14T01:23:48.795Z,73.80
2022-11-14T01:26:15.683Z,73.40
2022-11-14T01:28:42.412Z,73.90
2022-11-14T01:31:23.806Z,75.00
2022-11-14T01:33:52.514Z,75.40
2022-11-14T01:36:19.743Z,75.10
2022-11-14T01:38:46.632Z,79.00
2022-11-14T01:41:15.947Z,79.20
2022-11-14T01:43:42.977Z,78.60
2022-11-14T01:46:15.820Z,80.50
2022-11-14T01:48:56.320Z,84.50
2022-11-14T01:51:41.822Z,86.10
2022-11-14T01:54:29.783Z,87.50
2022-11-14T01:56:59.659Z,89.60
2022-11-14T01:59:32.818Z,91.20
2022-11-14T02:02:06.389Z,92.00
2022-11-14T02:04:36.453Z,93.20
2022-11-14T02:07:05.331Z,93.60
2022-11-14T02:09:36.149Z,93.00
2022-11-14T02:12:06.086Z,92.40
2022-11-14T02:14:34.399Z,91.30
2022-11-14T02:17:27.871Z,92.20
2022-11-14T02:19:54.505Z,91.50
2022-11-14T02:22:21.646Z,90.60
2022-11-14T02:24:48.386Z,92.20
2022-11-14T02:27:16.355Z,92.20
2022-11-14T02:29:43.459Z,90.80
2022-11-14T02:32:10.996Z,90.30
2022-11-14T02:34:38.622Z,91.60
2022-11-14T02:37:06.153Z,90.20
2022-11-14T02:39:32.823Z,90.80
2022-11-14T02:41:59.727Z,90.60
2022-11-14T02:44:26.492Z,89.40
2022-11-14T02:46:53.171Z,85.60
2022-11-14T02:49:20.358Z,85.00
2022-11-14T02:51:47.085Z,82.20
2022-11-14T02:54:13.768Z,83.90
2022-11-14T02:56:40.491Z,85.10
2022-11-14T02:59:07.167Z,84.00
2022-11-14T03:01:33.907Z,84.10
2022-11-14T03:04:00.633Z,83.60
2022-11-14T03:06:27.312Z,85.00
2022-11-14T03:08:54.150Z,85.70
2022-11-14T03:11:20.921Z,86.40
2022-11-14T03:13:47.580Z,87.80
2022-11-14T03:16:14.584Z,90.10
2022-11-14T03:18:41.529Z,90.90
2022-11-14T03:21:10.442Z,91.30
2022-11-14T03:23:37.851Z,92.40
2022-11-14T03:26:07.325Z,92.40
2022-11-14T03:28:34.445Z,92.60
2022-11-14T03:31:01.126Z,93.30
2022-11-14T03:33:28.065Z,94.30
2022-11-14T03:35:55.204Z,95.40
2022-11-14T03:38:23.146Z,95.90
2022-11-14T03:40:51.090Z,96.40
2022-11-14T03:43:19.445Z,96.80
2022-11-14T03:45:47.049Z,97.10
2022-11-14T03:48:14.170Z,97.50
2022-11-14T03:50:42.146Z,97.40
2022-11-14T03:53:08.952Z,97.60
2022-11-14T03:55:35.787Z,97.90
2022-11-14T03:58:02.481Z,98.40
2022-11-14T04:00:29.520Z,98.90
2022-11-14T04:02:57.414Z,99.10
2022-11-14T04:05:24.387Z,99.60
2022-11-14T04:07:51.513Z,99.90
2022-11-14T04:10:18.592Z,99.90
2022-11-14T04:12:53.562Z,99.90
2022-11-14T04:15:21.003Z,99.90
2022-11-14T04:17:47.730Z,99.90
2022-11-14T04:20:15.283Z,99.90
2022-11-14T04:22:42.204Z,99.90
2022-11-14T04:25:09.885Z,99.90
2022-11-14T04:27:36.603Z,99.90
2022-11-14T04:30:04.726Z,99.90
2022-11-14T04:32:31.609Z,99.90
2022-11-14T04:34:58.315Z,99.90
2022-11-14T04:37:25.081Z,99.90
2022-11-14T04:39:51.821Z,99.90
2022-11-14T04:42:18.588Z,99.90
2022-11-14T04:44:45.266Z,99.90
2022-11-14T04:47:12.217Z,99.90
2022-11-14T04:49:39.171Z,99.90
2022-11-14T04:52:06.405Z,99.90
2022-11-14T04:54:33.649Z,99.90
2022-11-14T04:57:00.576Z,99.90
2022-11-14T04:59:27.294Z,99.90
2022-11-14T05:01:54.109Z,99.90
2022-11-14T05:04:20.886Z,99.90
2022-11-14T05:06:47.658Z,99.90
2022-11-14T05:09:14.433Z,99.90
2022-11-14T05:11:41.122Z,99.90
2022-11-14T05:14:07.847Z,99.90
2022-11-14T05:16:34.536Z,99.90
2022-11-14T05:19:01.290Z,99.90
2022-11-14T05:21:27.973Z,99.90
2022-11-14T05:23:54.658Z,99.90
2022-11-14T05:26:21.491Z,99.90
2022-11-14T05:28:48.250Z,99.90
2022-11-14T05:31:18.036Z,99.90
2022-11-14T05:33:45.793Z,99.90
2022-11-14T05:36:14.959Z,99.90
2022-11-14T05:38:42.211Z,99.90
2022-11-14T05:41:22.000Z,99.90
2022-11-14T05:43:48.753Z,99.90
2022-11-14T05:46:16.502Z,99.90
2022-11-14T05:48:43.563Z,99.90
2022-11-14T05:51:12.295Z,99.90
2022-11-14T05:53:39.808Z,99.90
2022-11-14T05:56:10.110Z,99.90
2022-11-14T05:58:36.929Z,99.90
2022-11-14T06:01:09.726Z,99.90
2022-11-14T06:03:39.600Z,99.90
2022-11-14T06:06:07.831Z,99.90
2022-11-14T06:08:35.149Z,99.90
2022-11-14T06:11:04.363Z,99.90
2022-11-14T06:13:31.897Z,99.90
2022-11-14T06:16:06.819Z,99.90
2022-11-14T06:18:34.121Z,99.90
2022-11-14T06:21:01.845Z,99.90
2022-11-14T06:23:28.763Z,99.90
2022-11-14T06:26:02.721Z,99.90
2022-11-14T06:28:30.312Z,99.90
2022-11-14T06:30:59.169Z,99.90
2022-11-14T06:33:26.948Z,99.90
2022-11-14T06:36:05.509Z,99.90
2022-11-14T06:38:34.128Z,99.90
2022-11-14T06:41:07.356Z,99.90
2022-11-14T06:43:38.136Z,99.90
2022-11-14T06:46:05.964Z,99.90
2022-11-14T06:48:33.156Z,99.90
2022-11-14T06:51:01.797Z,99.90
2022-11-14T06:53:30.573Z,99.90
2022-11-14T06:56:04.253Z,99.90
2022-11-14T06:58:33.599Z,99.90
2022-11-14T07:01:08.672Z,99.90
2022-11-14T07:03:35.493Z,99.90
2022-11-14T07:06:02.720Z,99.90
2022-11-14T07:08:30.517Z,99.90
2022-11-14T07:11:07.825Z,99.90
2022-11-14T07:13:35.610Z,99.90
2022-11-14T07:16:03.733Z,99.90
2022-11-14T07:18:32.097Z,99.90
2022-11-14T07:21:04.979Z,99.90
2022-11-14T07:23:35.616Z,99.90
2022-11-14T07:26:04.551Z,99.90
2022-11-14T07:28:32.309Z,99.90
2022-11-14T07:30:59.233Z,99.90
2022-11-14T07:33:25.971Z,99.90
2022-11-14T07:35:52.631Z,99.90
2022-11-14T07:38:19.305Z,99.90
2022-11-14T07:40:59.528Z,99.90
2022-11-14T07:43:27.643Z,99.90
2022-11-14T07:45:54.641Z,99.90
2022-11-14T07:48:22.760Z,99.90
2022-11-14T07:50:49.533Z,99.90
2022-11-14T07:53:17.788Z,99.90
2022-11-14T07:55:44.774Z,99.90
2022-11-14T07:58:11.619Z,99.90
2022-11-14T08:00:38.449Z,99.90
2022-11-14T08:03:08.177Z,99.90
2022-11-14T08:05:35.727Z,99.90
2022-11-14T08:08:02.675Z,99.90
2022-11-14T08:10:33.455Z,99.90
2022-11-14T08:13:30.142Z,99.90
2022-11-14T08:15:51.952Z,99.90
2022-11-14T08:18:19.026Z,99.90
2022-11-14T08:20:45.903Z,99.90
2022-11-14T08:23:13.705Z,99.90
2022-11-14T08:25:41.726Z,99.90
2022-11-14T08:28:09.262Z,99.90
2022-11-14T08:30:36.164Z,99.90
2022-11-14T08:33:05.008Z,99.90
2022-11-14T08:35:33.514Z,99.90
2022-11-14T08:38:03.132Z,99.90
2022-11-14T08:40:30.432Z,99.90
2022-11-14T08:43:02.097Z,99.90
2022-11-14T08:45:29.739Z,99.90
2022-11-14T08:47:56.929Z,99.90
2022-11-14T08:50:23.993Z,99.90
2022-11-14T08:52:52.072Z,99.90
2022-11-14T08:55:20.588Z,99.90
2022-11-14T08:57:49.716Z,99.90
2022-11-14T09:00:17.506Z,99.90
2022-11-14T09:02:44.692Z,99.90
2022-11-14T09:05:11.628Z,99.90
2022-11-14T09:07:38.574Z,99.90
2022-11-14T09:10:06.301Z,99.90
2022-11-14T09:12:33.427Z,99.90
2022-11-14T09:15:00.302Z,99.90
2022-11-14T09:17:27.107Z,99.90
2022-11-14T09:19:54.226Z,99.90
2022-11-14T09:22:21.140Z,99.90
2022-11-14T09:24:49.528Z,99.90
2022-11-14T09:27:17.209Z,99.90
2022-11-14T09:29:44.489Z,99.90
2022-11-14T09:32:11.261Z,99.90
2022-11-14T09:34:42.895Z,99.90
2022-11-14T09:37:09.810Z,99.90
2022-11-14T09:39:40.542Z,99.90
2022-11-14T09:42:17.546Z,99.90
2022-11-14T09:44:58.597Z,99.90
2022-11-14T09:47:30.818Z,99.90
2022-11-14T09:50:07.932Z,99.90
2022-11-14T09:52:46.412Z,99.90
2022-11-14T09:55:19.423Z,99.90
2022-11-14T09:57:46.830Z,99.90
2022-11-14T10:00:21.394Z,99.90
2022-11-14T10:03:21.227Z,99.90
2022-11-14T10:06:09.339Z,99.90
2022-11-14T10:08:45.065Z,99.90
2022-11-14T10:11:33.313Z,99.90
2022-11-14T10:14:18.824Z,99.90
2022-11-14T10:16:45.570Z,99.90
2022-11-14T10:19:38.736Z,99.90
2022-11-14T10:22:56.126Z,99.90
2022-11-14T10:25:43.851Z,99.90
2022-11-14T10:28:24.408Z,99.90
2022-11-14T10:31:01.512Z,99.90
2022-11-14T10:33:57.698Z,99.90
2022-11-14T10:36:56.734Z,99.90
2022-11-14T10:39:35.086Z,99.90
2022-11-14T10:42:08.482Z,99.90
2022-11-14T10:44:45.021Z,99.90
2022-11-14T10:47:16.160Z,99.90
2022-11-14T10:49:46.776Z,99.90
2022-11-14T10:52:18.059Z,99.90
2022-11-14T10:55:00.371Z,99.90
2022-11-14T10:57:29.172Z,99.90
2022-11-14T10:59:56.062Z,99.90
2022-11-14T11:02:23.461Z,99.90
2022-11-14T11:04:50.231Z,99.90
2022-11-14T11:07:42.057Z,99.90
2022-11-14T11:10:40.246Z,99.90
2022-11-14T11:13:09.987Z,99.90
2022-11-14T11:15:41.427Z,99.90
2022-11-14T11:18:29.913Z,99.90
2022-11-14T11:21:07.866Z,99.90
2022-11-14T11:23:35.818Z,99.90
2022-11-14T11:26:18.445Z,99.90
2022-11-14T11:29:05.420Z,99.90
2022-11-14T11:32:05.122Z,99.90
2022-11-14T11:34:33.379Z,99.90
2022-11-14T11:37:19.191Z,99.90
2022-11-14T11:39:50.993Z,99.90
2022-11-14T11:43:31.718Z,99.90
2022-11-14T11:45:28.518Z,99.90
2022-11-14T11:48:05.544Z,99.90
2022-11-14T11:50:32.295Z,99.90
2022-11-14T11:53:18.242Z,99.90
2022-11-14T11:55:52.448Z,99.90
2022-11-14T11:58:43.353Z,99.90
2022-11-14T12:01:12.211Z,99.90
2022-11-14T12:03:39.624Z,99.90
2022-11-14T12:06:24.840Z,99.90
2022-11-14T12:09:15.862Z,99.90
2022-11-14T12:11:48.432Z,99.90
2022-11-14T12:14:51.660Z,99.90
2022-11-14T12:17:43.188Z,99.90
2022-11-14T12:20:34.913Z,99.90
2022-11-14T12:23:32.878Z,99.90
2022-11-14T12:26:22.765Z,99.90
2022-11-14T12:29:04.756Z,99.90
2022-11-14T12:31:36.003Z,99.90
2022-11-14T12:34:15.681Z,99.90
2022-11-14T12:36:45.915Z,99.90
2022-11-14T12:39:30.038Z,99.90
2022-11-14T12:42:09.753Z,99.90
2022-11-14T12:44:39.677Z,99.90
2022-11-14T12:47:06.591Z,99.90
2022-11-14T12:49:39.420Z,99.90
2022-11-14T12:52:41.300Z,99.90
2022-11-14T12:55:25.924Z,99.90
2022-11-14T12:58:12.115Z,99.90
2022-11-14T13:01:07.322Z,99.90
2022-11-14T13:03:57.777Z,99.90
2022-11-14T13:06:45.391Z,99.90
2022-11-14T13:09:31.863Z,99.90
2022-11-14T13:12:17.098Z,99.90
2022-11-14T13:15:14.461Z,99.90
2022-11-14T13:18:00.116Z,99.90
2022-11-14T13:20:55.083Z,99.90
2022-11-14T13:23:27.905Z,99.90
2022-11-14T13:26:10.521Z,99.90
2022-11-14T13:28:53.221Z,99.90
2022-11-14T13:31:36.992Z,99.90
2022-11-14T13:34:36.763Z,99.90
2022-11-14T13:37:31.758Z,99.90
2022-11-14T13:40:17.319Z,99.90
2022-11-14T13:42:56.356Z,99.90
2022-11-14T13:45:25.995Z,99.90
2022-11-14T13:48:13.574Z,99.90
2022-11-14T13:50:43.110Z,99.90
2022-11-14T13:53:19.952Z,99.90
2022-11-14T13:56:13.086Z,99.90
2022-11-14T13:59:14.287Z,99.90
2022-11-14T14:02:03.575Z,99.90
2022-11-14T14:04:43.991Z,99.90
2022-11-14T14:07:42.928Z,99.90
2022-11-14T14:10:40.098Z,99.90
2022-11-14T14:13:12.562Z,99.90
2022-11-14T14:16:09.764Z,99.90
2022-11-14T14:18:55.077Z,99.90
2022-11-14T14:21:30.997Z,99.90
2022-11-14T14:24:13.931Z,99.90
2022-11-14T14:27:14.232Z,99.90
2022-11-14T14:30:01.417Z,99.90
2022-11-14T14:32:28.289Z,99.90
2022-11-14T14:34:58.460Z,99.90
2022-11-14T14:37:28.455Z,99.90
2022-11-14T14:40:22.037Z,99.90
2022-11-14T14:42:49.352Z,99.90
2022-11-14T14:45:19.687Z,99.90
2022-11-14T14:48:02.668Z,99.90
2022-11-14T14:50:49.900Z,99.90
2022-11-14T14:53:28.576Z,99.90
2022-11-14T14:55:58.466Z,99.90
2022-11-14T14:58:29.597Z,99.90
2022-11-14T15:01:09.330Z,99.90
2022-11-14T15:03:48.985Z,99.90
2022-11-14T15:06:31.533Z,99.90
2022-11-14T15:09:02.311Z,99.90
2022-11-14T15:11:32.595Z,99.90
2022-11-14T15:14:01.662Z,99.90
2022-11-14T15:16:29.787Z,99.90
2022-11-14T15:18:58.231Z,99.90
2022-11-14T15:21:29.957Z,99.90
2022-11-14T15:24:23.262Z,99.90
2022-11-14T15:26:51.174Z,99.90
2022-11-14T15:29:26.510Z,99.90
2022-11-14T15:32:01.114Z,99.90
2022-11-14T15:34:36.517Z,99.90
2022-11-14T15:37:16.399Z,99.90
2022-11-14T15:39:43.914Z,99.90
2022-11-14T15:42:17.529Z,99.90
2022-11-14T15:44:45.285Z,99.90
2022-11-14T15:47:28.885Z,99.90
2022-11-14T15:50:03.062Z,99.90
2022-11-14T15:52:40.005Z,99.90
2022-11-14T15:55:15.693Z,99.90
2022-11-14T15:57:45.391Z,99.90
2022-11-14T16:00:16.552Z,99.90
2022-11-14T16:02:55.883Z,99.90
2022-11-14T16:05:28.961Z,99.90
2022-11-14T16:07:56.714Z,99.90
2022-11-14T16:10:25.918Z,99.90
2022-11-14T16:12:53.059Z,99.90
2022-11-14T16:15:21.040Z,99.90
2022-11-14T16:17:49.728Z,99.90
2022-11-14T16:20:22.637Z,99.90
2022-11-14T16:22:50.939Z,99.90
2022-11-14T16:25:22.773Z,99.90
2022-11-14T16:27:49.637Z,99.90
2022-11-14T16:30:18.559Z,99.90
2022-11-14T16:32:47.307Z,99.90
2022-11-14T16:35:18.045Z,99.90
2022-11-14T16:37:45.078Z,99.90
2022-11-14T16:40:23.644Z,99.90
2022-11-14T16:42:50.627Z,99.90
2022-11-14T16:45:20.263Z,99.90
2022-11-14T16:47:48.448Z,99.90
2022-11-14T16:50:15.885Z,99.90
2022-11-14T16:52:42.669Z,99.90
2022-11-14T16:55:11.399Z,99.90
2022-11-14T16:57:39.209Z,99.90
2022-11-14T17:00:09.208Z,99.90
2022-11-14T17:02:36.008Z,99.90
2022-11-14T17:05:02.831Z,99.90
2022-11-14T17:07:33.324Z,99.90
2022-11-14T17:10:00.882Z,99.90
2022-11-14T17:12:28.528Z,99.90
2022-11-14T17:14:55.279Z,99.90
2022-11-14T17:17:22.198Z,99.90
2022-11-14T17:19:49.590Z,99.90
2022-11-14T17:22:18.092Z,99.90
2022-11-14T17:24:44.829Z,99.90
2022-11-14T17:27:12.969Z,99.90
2022-11-14T17:29:40.016Z,99.90
2022-11-14T17:32:06.876Z,99.90
2022-11-14T17:34:35.548Z,99.90
2022-11-14T17:37:02.186Z,99.90
2022-11-14T17:39:29.770Z,99.90
2022-11-14T17:41:56.577Z,99.90
2022-11-14T17:44:23.360Z,99.90
2022-11-14T17:46:50.290Z,99.90
2022-11-14T17:49:16.945Z,99.90
2022-11-14T17:51:43.682Z,99.90
2022-11-14T17:54:10.356Z,99.90
2022-11-14T17:56:41.177Z,99.90
2022-11-14T17:59:11.230Z,99.90
2022-11-14T18:01:38.041Z,99.90
2022-11-14T18:04:06.596Z,99.90
2022-11-14T18:06:34.401Z,99.90
2022-11-14T18:09:04.968Z,99.90
2022-11-14T18:11:32.224Z,99.90
2022-11-14T18:13:58.912Z,99.90
2022-11-14T18:16:28.627Z,99.90
2022-11-14T18:19:06.693Z,99.90
2022-11-14T18:21:33.491Z,99.90
2022-11-14T18:24:00.650Z,99.90
2022-11-14T18:26:28.806Z,99.90
2022-11-14T18:28:56.869Z,99.90
2022-11-14T18:31:24.536Z,99.90
2022-11-14T18:33:52.024Z,99.90
2022-11-14T18:36:19.395Z,99.90
2022-11-14T18:38:46.962Z,99.90
2022-11-14T18:41:16.751Z,99.90
2022-11-14T18:43:47.174Z,99.90
2022-11-14T18:46:19.647Z,99.90
2022-11-14T18:48:48.736Z,99.90
2022-11-14T18:51:21.054Z,99.90
2022-11-14T18:53:48.464Z,99.90
2022-11-14T18:56:17.480Z,99.90
2022-11-14T18:58:45.087Z,99.90
2022-11-14T19:01:24.045Z,99.90
2022-11-14T19:03:51.496Z,99.90
2022-11-14T19:06:18.487Z,99.90
2022-11-14T19:08:45.309Z,99.90
2022-11-14T19:11:33.135Z,99.90
2022-11-14T19:14:05.786Z,99.90
2022-11-14T19:16:34.211Z,99.90
2022-11-14T19:19:01.602Z,99.90
2022-11-14T19:21:28.914Z,99.90
2022-11-14T19:23:57.574Z,99.90
2022-11-14T19:26:24.499Z,99.90
2022-11-14T19:28:51.587Z,99.90
2022-11-14T19:31:19.467Z,99.90
2022-11-14T19:33:46.342Z,99.90
2022-11-14T19:36:16.823Z,99.90
2022-11-14T19:38:45.798Z,99.90
2022-11-14T19:41:20.300Z,99.90
2022-11-14T19:43:47.898Z,99.90
2022-11-14T19:46:17.060Z,99.90
2022-11-14T19:48:44.127Z,99.90
2022-11-14T19:51:19.176Z,99.90
2022-11-14T19:53:46.828Z,99.90
2022-11-14T19:56:16.686Z,99.90
2022-11-14T19:58:45.515Z,99.90
2022-11-14T20:01:17.060Z,99.90
2022-11-14T20:03:44.029Z,99.90
2022-11-14T20:06:20.039Z,99.90
2022-11-14T20:08:46.829Z,99.90
2022-11-14T20:11:13.613Z,99.90
2022-11-14T20:13:44.139Z,99.90
2022-11-14T20:16:17.159Z,99.90
2022-11-14T20:18:46.536Z,99.90
2022-11-14T20:21:14.839Z,99.90
2022-11-14T20:23:42.359Z,99.90
2022-11-14T20:26:12.586Z,99.90
2022-11-14T20:28:41.373Z,99.90
2022-11-14T20:31:16.853Z,99.90
2022-11-14T20:33:46.427Z,99.90
2022-11-14T20:36:16.492Z,99.90
2022-11-14T20:38:44.693Z,99.90
2022-11-14T20:41:12.671Z,99.90
2022-11-14T20:43:40.109Z,99.90
2022-11-14T20:46:15.751Z,99.90
2022-11-14T20:48:42.920Z,99.90
2022-11-14T20:51:12.732Z,99.90
2022-11-14T20:53:39.854Z,99.90
2022-11-14T20:56:07.573Z,99.90
2022-11-14T20:58:34.861Z,99.90
2022-11-14T21:01:01.704Z,99.90
2022-11-14T21:03:29.066Z,99.90
2022-11-14T21:05:56.693Z,99.90
2022-11-14T21:08:23.611Z,99.90
2022-11-14T21:10:57.235Z,99.90
2022-11-14T21:13:42.617Z,99.90
2022-11-14T21:16:14.713Z,99.90
2022-11-14T21:18:45.202Z,99.90
2022-11-14T21:21:16.041Z,99.90
2022-11-14T21:23:43.917Z,99.90
2022-11-14T21:26:15.843Z,99.90
2022-11-14T21:28:44.407Z,99.90
2022-11-14T21:31:26.488Z,99.90
2022-11-14T21:33:58.968Z,99.90
2022-11-14T21:36:44.482Z,99.90
2022-11-14T21:39:14.842Z,99.90
2022-11-14T21:41:42.731Z,99.90
2022-11-14T21:44:13.068Z,99.90
2022-11-14T21:46:40.936Z,99.90
2022-11-14T21:49:08.100Z,99.90
2022-11-14T21:51:34.839Z,99.90
2022-11-14T21:54:06.522Z,99.90
2022-11-14T21:56:35.292Z,99.90
2022-11-14T21:59:13.433Z,99.90
2022-11-14T22:02:04.595Z,99.90
2022-11-14T22:04:32.145Z,99.90
2022-11-14T22:07:01.210Z,99.90
2022-11-14T22:09:28.529Z,99.90
2022-11-14T22:11:55.928Z,99.90
2022-11-14T22:14:23.001Z,99.90
2022-11-14T22:16:49.717Z,99.90
2022-11-14T22:19:16.587Z,99.90
2022-11-14T22:21:43.315Z,99.90
2022-11-14T22:24:10.041Z,99.90
2022-11-14T22:26:39.845Z,99.90
2022-11-14T22:29:07.790Z,99.90
2022-11-14T22:31:34.761Z,99.90
2022-11-14T22:34:01.899Z,99.90
2022-11-14T22:36:29.161Z,99.90
2022-11-14T22:38:56.802Z,99.90
2022-11-14T22:41:32.213Z,99.90
2022-11-14T22:44:00.446Z,99.90
2022-11-14T22:46:27.658Z,99.90
2022-11-14T22:48:54.911Z,99.90
2022-11-14T22:51:26.329Z,99.90
2022-11-14T22:53:54.940Z,99.90
2022-11-14T22:56:25.331Z,99.90
2022-11-14T22:58:52.286Z,99.90
2022-11-14T23:01:20.976Z,99.90
2022-11-14T23:03:48.711Z,99.90
2022-11-14T23:06:17.719Z,99.90
2022-11-14T23:08:44.940Z,99.90
2022-11-14T23:11:18.530Z,99.90
2022-11-14T23:13:47.989Z,99.90
2022-11-14T23:16:22.849Z,99.90
2022-11-14T23:18:50.783Z,99.90
2022-11-14T23:21:32.193Z,99.90
2022-11-14T23:24:04.513Z,99.90
2022-11-14T23:26:31.577Z,99.90
2022-11-14T23:28:58.483Z,99.90
2022-11-14T23:31:25.832Z,99.90
2022-11-14T23:33:54.471Z,99.90
2022-11-14T23:36:21.668Z,99.90
2022-11-14T23:38:48.330Z,99.90
2022-11-14T23:41:27.584Z,99.90
2022-11-14T23:43:54.319Z,99.90
2022-11-14T23:46:21.205Z,99.90
2022-11-14T23:48:48.124Z,99.90
2022-11-14T23:51:14.795Z,99.90
2022-11-14T23:53:41.902Z,99.90
2022-11-14T23:56:12.366Z,99.90
2022-11-14T23:58:39.295Z,99.90
